sensor_id;sensor_type;location;lat;lon;timestamp;noise_LAeq;noise_LA_min;noise_LA_max;noise_LA01;noise_LA95
67310;Laerm;65444;51.438;5.982;2024-02-21T00:04:17;31.05;29.31;33.16;;
67310;Laerm;65444;51.438;5.982;2024-02-21T00:04:27;30.94;28.97;34.55;;
67310;Laerm;65444;51.438;5.982;2024-02-21T00:04:40;31.85;29.96;37.62;;
67310;Laerm;65444;51.438;5.982;2024-02-21T00:04:55;33.61;30.77;40.98;;
67310;Laerm;65444;51.438;5.982;2024-02-21T00:05:07;34.92;31.67;39.95;;
67310;Laerm;65444;51.438;5.982;2024-02-21T00:05:17;33.17;31.46;36.07;;
67310;Laerm;65444;51.438;5.982;2024-02-21T00:05:28;36.65;32.03;51.67;;
67310;Laerm;65444;51.438;5.982;2024-02-21T00:05:43;33.35;30.28;36.74;;
67310;Laerm;65444;51.438;5.982;2024-02-21T00:05:54;32.92;30.04;39.01;;
67310;Laerm;65444;51.438;5.982;2024-02-21T00:06:09;34.26;29.97;45.44;;
67310;Laerm;65444;51.438;5.982;2024-02-21T00:06:20;37.77;30.82;58.87;;
67310;Laerm;65444;51.438;5.982;2024-02-21T00:06:31;42.24;32.10;56.13;;
67310;Laerm;65444;51.438;5.982;2024-02-21T00:06:44;35.60;30.47;48.35;;
67310;Laerm;65444;51.438;5.982;2024-02-21T00:06:55;32.90;29.83;41.98;;
67310;Laerm;65444;51.438;5.982;2024-02-21T00:07:13;32.79;30.11;41.59;;
67310;Laerm;65444;51.438;5.982;2024-02-21T00:07:26;31.51;29.45;36.51;;
67310;Laerm;65444;51.438;5.982;2024-02-21T00:07:37;31.75;29.24;35.70;;
67310;Laerm;65444;51.438;5.982;2024-02-21T00:07:47;31.52;29.45;36.67;;
67310;Laerm;65444;51.438;5.982;2024-02-21T00:08:01;31.37;29.55;33.27;;
67310;Laerm;65444;51.438;5.982;2024-02-21T00:08:20;32.14;29.91;39.77;;
67310;Laerm;65444;51.438;5.982;2024-02-21T00:08:34;36.58;30.12;52.55;;
67310;Laerm;65444;51.438;5.982;2024-02-21T00:08:47;39.47;30.59;56.82;;
67310;Laerm;65444;51.438;5.982;2024-02-21T00:09:12;34.70;30.26;54.85;;
67310;Laerm;65444;51.438;5.982;2024-02-21T00:09:22;35.41;31.20;49.00;;
67310;Laerm;65444;51.438;5.982;2024-02-21T00:09:33;35.82;31.79;46.25;;
67310;Laerm;65444;51.438;5.982;2024-02-21T00:09:44;37.15;29.42;54.60;;
67310;Laerm;65444;51.438;5.982;2024-02-21T00:09:55;30.93;29.17;38.87;;
67310;Laerm;65444;51.438;5.982;2024-02-21T00:10:05;36.65;29.85;48.43;;
67310;Laerm;65444;51.438;5.982;2024-02-21T00:10:16;37.94;29.63;50.96;;
67310;Laerm;65444;51.438;5.982;2024-02-21T00:10:27;32.44;29.72;39.44;;
67310;Laerm;65444;51.438;5.982;2024-02-21T00:10:38;38.96;29.46;54.11;;
67310;Laerm;65444;51.438;5.982;2024-02-21T00:10:49;36.65;29.94;53.46;;
67310;Laerm;65444;51.438;5.982;2024-02-21T00:11:00;30.67;28.93;34.95;;
67310;Laerm;65444;51.438;5.982;2024-02-21T00:11:15;29.84;28.24;31.12;;
67310;Laerm;65444;51.438;5.982;2024-02-21T00:11:26;30.26;28.48;37.95;;
67310;Laerm;65444;51.438;5.982;2024-02-21T00:11:36;29.86;28.46;33.83;;
67310;Laerm;65444;51.438;5.982;2024-02-21T00:11:49;30.75;29.16;36.85;;
67310;Laerm;65444;51.438;5.982;2024-02-21T00:12:15;30.22;28.75;33.16;;
67310;Laerm;65444;51.438;5.982;2024-02-21T00:12:28;30.46;28.86;36.91;;
67310;Laerm;65444;51.438;5.982;2024-02-21T00:12:47;31.83;29.18;42.43;;
67310;Laerm;65444;51.438;5.982;2024-02-21T00:13:00;33.67;30.10;43.97;;
67310;Laerm;65444;51.438;5.982;2024-02-21T00:13:11;32.68;29.80;41.86;;
67310;Laerm;65444;51.438;5.982;2024-02-21T00:13:21;38.07;29.80;49.76;;
67310;Laerm;65444;51.438;5.982;2024-02-21T00:13:56;32.83;29.22;45.49;;
67310;Laerm;65444;51.438;5.982;2024-02-21T00:14:07;31.12;29.32;37.04;;
67310;Laerm;65444;51.438;5.982;2024-02-21T00:14:20;31.59;29.27;40.86;;
67310;Laerm;65444;51.438;5.982;2024-02-21T00:14:31;30.76;29.11;39.85;;
67310;Laerm;65444;51.438;5.982;2024-02-21T00:14:41;30.57;28.99;32.58;;
67310;Laerm;65444;51.438;5.982;2024-02-21T00:14:57;31.10;29.24;35.66;;
67310;Laerm;65444;51.438;5.982;2024-02-21T00:15:08;31.20;29.42;40.43;;
67310;Laerm;65444;51.438;5.982;2024-02-21T00:15:19;38.02;30.20;50.21;;
67310;Laerm;65444;51.438;5.982;2024-02-21T00:15:32;36.87;29.29;51.13;;
67310;Laerm;65444;51.438;5.982;2024-02-21T00:15:43;31.71;28.78;39.10;;
67310;Laerm;65444;51.438;5.982;2024-02-21T00:15:54;32.26;29.77;39.83;;
67310;Laerm;65444;51.438;5.982;2024-02-21T00:16:12;32.95;29.34;40.85;;
67310;Laerm;65444;51.438;5.982;2024-02-21T00:16:23;31.73;29.08;43.21;;
67310;Laerm;65444;51.438;5.982;2024-02-21T00:16:34;32.09;29.31;41.46;;
67310;Laerm;65444;51.438;5.982;2024-02-21T00:16:45;32.17;30.32;36.87;;
67310;Laerm;65444;51.438;5.982;2024-02-21T00:17:00;34.94;29.45;46.99;;
67310;Laerm;65444;51.438;5.982;2024-02-21T00:17:10;34.68;29.74;47.91;;
67310;Laerm;65444;51.438;5.982;2024-02-21T00:17:24;30.39;28.54;33.85;;
67310;Laerm;65444;51.438;5.982;2024-02-21T00:17:36;31.77;29.07;42.45;;
67310;Laerm;65444;51.438;5.982;2024-02-21T00:17:47;32.18;29.76;37.00;;
67310;Laerm;65444;51.438;5.982;2024-02-21T00:17:59;35.23;30.98;40.32;;
67310;Laerm;65444;51.438;5.982;2024-02-21T00:18:10;37.74;30.43;44.22;;
67310;Laerm;65444;51.438;5.982;2024-02-21T00:18:21;31.72;29.81;34.77;;
67310;Laerm;65444;51.438;5.982;2024-02-21T00:18:34;38.39;31.64;44.07;;
67310;Laerm;65444;51.438;5.982;2024-02-21T00:18:53;31.04;29.39;33.99;;
67310;Laerm;65444;51.438;5.982;2024-02-21T00:19:07;30.57;28.52;33.12;;
67310;Laerm;65444;51.438;5.982;2024-02-21T00:19:24;30.59;28.54;43.26;;
67310;Laerm;65444;51.438;5.982;2024-02-21T00:19:35;30.76;28.54;39.93;;
67310;Laerm;65444;51.438;5.982;2024-02-21T00:19:48;31.13;28.77;39.05;;
67310;Laerm;65444;51.438;5.982;2024-02-21T00:19:59;30.63;28.60;36.02;;
67310;Laerm;65444;51.438;5.982;2024-02-21T00:20:15;29.73;27.98;32.11;;
67310;Laerm;65444;51.438;5.982;2024-02-21T00:20:26;31.67;28.79;43.29;;
67310;Laerm;65444;51.438;5.982;2024-02-21T00:20:42;41.55;29.40;55.65;;
67310;Laerm;65444;51.438;5.982;2024-02-21T00:20:55;30.46;29.05;32.70;;
67310;Laerm;65444;51.438;5.982;2024-02-21T00:21:45;33.93;28.81;48.38;;
67310;Laerm;65444;51.438;5.982;2024-02-21T00:21:58;30.12;28.78;33.84;;
67310;Laerm;65444;51.438;5.982;2024-02-21T00:22:12;29.94;28.55;32.56;;
67310;Laerm;65444;51.438;5.982;2024-02-21T00:22:23;30.19;28.83;31.36;;
67310;Laerm;65444;51.438;5.982;2024-02-21T00:22:44;30.79;28.48;42.10;;
67310;Laerm;65444;51.438;5.982;2024-02-21T00:22:58;30.48;28.02;40.28;;
67310;Laerm;65444;51.438;5.982;2024-02-21T00:23:12;30.61;28.51;40.06;;
67310;Laerm;65444;51.438;5.982;2024-02-21T00:23:23;32.86;29.63;43.82;;
67310;Laerm;65444;51.438;5.982;2024-02-21T00:24:27;29.52;27.79;31.26;;
67310;Laerm;65444;51.438;5.982;2024-02-21T00:24:40;31.38;28.83;41.16;;
67310;Laerm;65444;51.438;5.982;2024-02-21T00:24:52;32.17;29.06;39.84;;
67310;Laerm;65444;51.438;5.982;2024-02-21T00:25:09;33.88;29.88;43.83;;
67310;Laerm;65444;51.438;5.982;2024-02-21T00:25:31;35.16;29.93;45.97;;
67310;Laerm;65444;51.438;5.982;2024-02-21T00:25:41;33.10;29.16;45.49;;
67310;Laerm;65444;51.438;5.982;2024-02-21T00:26:01;30.59;28.76;35.04;;
67310;Laerm;65444;51.438;5.982;2024-02-21T00:26:13;30.72;29.46;32.67;;
67310;Laerm;65444;51.438;5.982;2024-02-21T00:26:36;32.31;29.30;44.19;;
67310;Laerm;65444;51.438;5.982;2024-02-21T00:26:49;30.60;29.01;40.70;;
67310;Laerm;65444;51.438;5.982;2024-02-21T00:27:24;30.40;28.83;35.30;;
67310;Laerm;65444;51.438;5.982;2024-02-21T00:27:39;31.27;29.47;36.62;;
67310;Laerm;65444;51.438;5.982;2024-02-21T00:28:02;31.49;29.73;36.76;;
67310;Laerm;65444;51.438;5.982;2024-02-21T00:28:12;35.44;29.99;53.44;;
67310;Laerm;65444;51.438;5.982;2024-02-21T00:28:26;32.79;29.34;46.50;;
67310;Laerm;65444;51.438;5.982;2024-02-21T00:28:40;31.01;29.38;38.27;;
67310;Laerm;65444;51.438;5.982;2024-02-21T00:29:02;36.62;28.56;48.32;;
67310;Laerm;65444;51.438;5.982;2024-02-21T00:29:13;41.54;29.59;59.40;;
67310;Laerm;65444;51.438;5.982;2024-02-21T00:29:29;36.22;30.15;50.40;;
67310;Laerm;65444;51.438;5.982;2024-02-21T00:29:40;34.32;29.77;45.30;;
67310;Laerm;65444;51.438;5.982;2024-02-21T00:29:51;36.18;29.37;48.45;;
67310;Laerm;65444;51.438;5.982;2024-02-21T00:30:17;40.63;31.48;53.66;;
67310;Laerm;65444;51.438;5.982;2024-02-21T00:30:27;37.10;29.57;52.24;;
67310;Laerm;65444;51.438;5.982;2024-02-21T00:30:38;35.53;29.52;46.99;;
67310;Laerm;65444;51.438;5.982;2024-02-21T00:30:49;35.72;30.31;45.90;;
67310;Laerm;65444;51.438;5.982;2024-02-21T00:31:01;44.71;37.68;55.28;;
67310;Laerm;65444;51.438;5.982;2024-02-21T00:31:11;44.52;34.00;60.52;;
67310;Laerm;65444;51.438;5.982;2024-02-21T00:31:22;36.58;34.04;44.44;;
67310;Laerm;65444;51.438;5.982;2024-02-21T00:31:33;35.82;32.54;41.53;;
67310;Laerm;65444;51.438;5.982;2024-02-21T00:31:44;37.82;33.29;44.05;;
67310;Laerm;65444;51.438;5.982;2024-02-21T00:31:55;38.51;32.72;45.38;;
67310;Laerm;65444;51.438;5.982;2024-02-21T00:32:14;37.85;32.00;50.95;;
67310;Laerm;65444;51.438;5.982;2024-02-21T00:32:25;34.52;30.09;44.94;;
67310;Laerm;65444;51.438;5.982;2024-02-21T00:32:36;32.83;28.88;41.81;;
67310;Laerm;65444;51.438;5.982;2024-02-21T00:32:47;33.03;28.81;42.51;;
67310;Laerm;65444;51.438;5.982;2024-02-21T00:32:58;32.23;28.58;42.66;;
67310;Laerm;65444;51.438;5.982;2024-02-21T00:33:08;31.30;28.81;37.44;;
67310;Laerm;65444;51.438;5.982;2024-02-21T00:33:19;29.90;28.49;34.68;;
67310;Laerm;65444;51.438;5.982;2024-02-21T00:33:30;31.20;28.96;39.51;;
67310;Laerm;65444;51.438;5.982;2024-02-21T00:33:40;34.24;30.12;44.38;;
67310;Laerm;65444;51.438;5.982;2024-02-21T00:33:52;33.70;29.93;43.37;;
67310;Laerm;65444;51.438;5.982;2024-02-21T00:34:02;31.11;29.15;39.02;;
67310;Laerm;65444;51.438;5.982;2024-02-21T00:34:13;30.19;28.91;31.70;;
67310;Laerm;65444;51.438;5.982;2024-02-21T00:34:29;30.17;28.70;31.94;;
67310;Laerm;65444;51.438;5.982;2024-02-21T00:34:39;30.97;28.87;39.43;;
67310;Laerm;65444;51.438;5.982;2024-02-21T00:34:50;30.48;28.90;35.29;;
67310;Laerm;65444;51.438;5.982;2024-02-21T00:35:01;31.85;28.64;48.66;;
67310;Laerm;65444;51.438;5.982;2024-02-21T00:35:15;31.38;28.37;40.63;;
67310;Laerm;65444;51.438;5.982;2024-02-21T00:35:26;32.48;29.22;45.34;;
67310;Laerm;65444;51.438;5.982;2024-02-21T00:35:36;30.73;29.00;39.11;;
67310;Laerm;65444;51.438;5.982;2024-02-21T00:35:48;30.99;29.12;34.51;;
67310;Laerm;65444;51.438;5.982;2024-02-21T00:36:00;30.42;28.77;32.87;;
67310;Laerm;65444;51.438;5.982;2024-02-21T00:36:11;30.27;28.99;31.47;;
67310;Laerm;65444;51.438;5.982;2024-02-21T00:36:22;34.39;28.90;49.01;;
67310;Laerm;65444;51.438;5.982;2024-02-21T00:36:34;30.54;29.11;36.52;;
67310;Laerm;65444;51.438;5.982;2024-02-21T00:36:45;30.48;28.90;32.58;;
67310;Laerm;65444;51.438;5.982;2024-02-21T00:36:56;30.53;29.05;34.23;;
67310;Laerm;65444;51.438;5.982;2024-02-21T00:37:06;30.13;28.47;31.44;;
67310;Laerm;65444;51.438;5.982;2024-02-21T00:37:20;30.71;28.99;32.72;;
67310;Laerm;65444;51.438;5.982;2024-02-21T00:37:31;43.38;29.96;59.28;;
67310;Laerm;65444;51.438;5.982;2024-02-21T00:37:42;37.25;29.15;53.48;;
67310;Laerm;65444;51.438;5.982;2024-02-21T00:37:53;31.45;29.07;38.40;;
67310;Laerm;65444;51.438;5.982;2024-02-21T00:38:08;36.07;28.96;54.68;;
67310;Laerm;65444;51.438;5.982;2024-02-21T00:38:19;33.54;29.23;44.54;;
67310;Laerm;65444;51.438;5.982;2024-02-21T00:38:33;31.15;28.76;40.07;;
67310;Laerm;65444;51.438;5.982;2024-02-21T00:38:44;31.75;28.91;41.49;;
67310;Laerm;65444;51.438;5.982;2024-02-21T00:39:07;29.95;28.08;32.62;;
67310;Laerm;65444;51.438;5.982;2024-02-21T00:39:17;31.09;29.13;37.93;;
67310;Laerm;65444;51.438;5.982;2024-02-21T00:39:28;31.42;29.39;42.04;;
67310;Laerm;65444;51.438;5.982;2024-02-21T00:39:38;32.57;29.42;44.17;;
67310;Laerm;65444;51.438;5.982;2024-02-21T00:39:49;32.99;29.92;46.50;;
67310;Laerm;65444;51.438;5.982;2024-02-21T00:40:00;32.52;29.87;38.01;;
67310;Laerm;65444;51.438;5.982;2024-02-21T00:40:16;33.11;30.68;35.59;;
67310;Laerm;65444;51.438;5.982;2024-02-21T00:40:30;31.52;29.18;38.50;;
67310;Laerm;65444;51.438;5.982;2024-02-21T00:40:41;30.72;28.93;39.56;;
67310;Laerm;65444;51.438;5.982;2024-02-21T00:40:52;30.78;28.53;38.39;;
67310;Laerm;65444;51.438;5.982;2024-02-21T00:41:03;30.11;28.52;34.88;;
67310;Laerm;65444;51.438;5.982;2024-02-21T00:41:15;30.22;28.93;33.02;;
67310;Laerm;65444;51.438;5.982;2024-02-21T00:41:29;34.65;28.78;48.31;;
67310;Laerm;65444;51.438;5.982;2024-02-21T00:41:40;31.27;28.50;45.05;;
67310;Laerm;65444;51.438;5.982;2024-02-21T00:41:50;29.73;28.31;31.07;;
67310;Laerm;65444;51.438;5.982;2024-02-21T00:42:01;30.26;28.48;32.73;;
67310;Laerm;65444;51.438;5.982;2024-02-21T00:42:14;31.51;29.01;41.06;;
67310;Laerm;65444;51.438;5.982;2024-02-21T00:42:25;32.13;29.10;48.81;;
67310;Laerm;65444;51.438;5.982;2024-02-21T00:42:36;36.95;30.27;48.79;;
67310;Laerm;65444;51.438;5.982;2024-02-21T00:42:53;32.41;29.59;41.15;;
67310;Laerm;65444;51.438;5.982;2024-02-21T00:43:03;31.26;29.21;40.58;;
67310;Laerm;65444;51.438;5.982;2024-02-21T00:43:20;33.02;28.52;48.59;;
67310;Laerm;65444;51.438;5.982;2024-02-21T00:43:33;30.65;28.50;41.01;;
67310;Laerm;65444;51.438;5.982;2024-02-21T00:43:44;30.17;28.43;36.09;;
67310;Laerm;65444;51.438;5.982;2024-02-21T00:43:57;29.65;28.48;31.03;;
67310;Laerm;65444;51.438;5.982;2024-02-21T00:44:08;30.59;28.74;37.02;;
67310;Laerm;65444;51.438;5.982;2024-02-21T00:44:20;30.73;29.09;38.03;;
67310;Laerm;65444;51.438;5.982;2024-02-21T00:44:31;30.25;28.85;31.75;;
67310;Laerm;65444;51.438;5.982;2024-02-21T00:44:44;31.40;29.40;40.20;;
67310;Laerm;65444;51.438;5.982;2024-02-21T00:45:41;32.98;29.20;47.36;;
67310;Laerm;65444;51.438;5.982;2024-02-21T00:45:52;31.07;29.23;33.79;;
67310;Laerm;65444;51.438;5.982;2024-02-21T00:46:08;31.44;29.16;36.50;;
67310;Laerm;65444;51.438;5.982;2024-02-21T00:46:24;32.66;30.03;43.45;;
67310;Laerm;65444;51.438;5.982;2024-02-21T00:46:35;32.15;29.53;40.29;;
67310;Laerm;65444;51.438;5.982;2024-02-21T00:46:49;32.95;30.73;41.41;;
67310;Laerm;65444;51.438;5.982;2024-02-21T00:47:00;32.14;30.67;34.69;;
67310;Laerm;65444;51.438;5.982;2024-02-21T00:47:23;32.97;31.01;36.12;;
67310;Laerm;65444;51.438;5.982;2024-02-21T00:47:34;37.97;33.16;52.01;;
67310;Laerm;65444;51.438;5.982;2024-02-21T00:47:45;48.09;40.50;57.79;;
67310;Laerm;65444;51.438;5.982;2024-02-21T00:47:59;50.52;47.81;53.50;;
67310;Laerm;65444;51.438;5.982;2024-02-21T00:48:10;49.21;43.99;54.07;;
67310;Laerm;65444;51.438;5.982;2024-02-21T00:48:32;43.23;34.46;47.88;;
67310;Laerm;65444;51.438;5.982;2024-02-21T00:48:43;33.90;30.57;42.16;;
67310;Laerm;65444;51.438;5.982;2024-02-21T00:48:53;30.69;28.78;34.01;;
67310;Laerm;65444;51.438;5.982;2024-02-21T00:49:04;30.07;28.64;34.05;;
67310;Laerm;65444;51.438;5.982;2024-02-21T00:49:18;29.93;28.69;33.66;;
67310;Laerm;65444;51.438;5.982;2024-02-21T00:49:29;29.75;28.32;31.04;;
67310;Laerm;65444;51.438;5.982;2024-02-21T00:49:40;29.70;28.59;31.29;;
67310;Laerm;65444;51.438;5.982;2024-02-21T00:49:51;30.68;28.66;33.11;;
67310;Laerm;65444;51.438;5.982;2024-02-21T00:50:03;35.47;29.18;54.44;;
67310;Laerm;65444;51.438;5.982;2024-02-21T00:50:19;30.07;28.59;40.30;;
67310;Laerm;65444;51.438;5.982;2024-02-21T00:50:30;29.99;28.35;38.23;;
67310;Laerm;65444;51.438;5.982;2024-02-21T00:50:41;32.45;28.56;45.52;;
67310;Laerm;65444;51.438;5.982;2024-02-21T00:50:51;29.55;27.87;35.34;;
67310;Laerm;65444;51.438;5.982;2024-02-21T00:51:02;29.36;27.97;34.83;;
67310;Laerm;65444;51.438;5.982;2024-02-21T00:51:13;29.36;28.12;31.75;;
67310;Laerm;65444;51.438;5.982;2024-02-21T00:51:26;30.11;27.95;36.56;;
67310;Laerm;65444;51.438;5.982;2024-02-21T00:51:37;30.34;28.00;37.03;;
67310;Laerm;65444;51.438;5.982;2024-02-21T00:51:50;30.92;28.14;41.23;;
67310;Laerm;65444;51.438;5.982;2024-02-21T00:52:01;30.84;28.29;41.40;;
67310;Laerm;65444;51.438;5.982;2024-02-21T00:52:12;30.94;28.58;38.48;;
67310;Laerm;65444;51.438;5.982;2024-02-21T00:52:37;31.30;28.32;39.93;;
67310;Laerm;65444;51.438;5.982;2024-02-21T00:52:51;30.74;28.17;44.13;;
67310;Laerm;65444;51.438;5.982;2024-02-21T00:53:01;30.57;28.53;37.22;;
67310;Laerm;65444;51.438;5.982;2024-02-21T00:53:12;30.18;28.43;37.55;;
67310;Laerm;65444;51.438;5.982;2024-02-21T00:53:42;30.49;28.18;38.55;;
67310;Laerm;65444;51.438;5.982;2024-02-21T00:54:31;34.06;28.62;55.09;;
67310;Laerm;65444;51.438;5.982;2024-02-21T00:54:42;31.91;28.71;42.36;;
67310;Laerm;65444;51.438;5.982;2024-02-21T00:54:53;31.15;28.71;38.78;;
67310;Laerm;65444;51.438;5.982;2024-02-21T00:55:07;31.33;29.03;36.95;;
67310;Laerm;65444;51.438;5.982;2024-02-21T00:55:17;31.77;28.70;42.26;;
67310;Laerm;65444;51.438;5.982;2024-02-21T00:55:29;32.87;28.68;45.87;;
67310;Laerm;65444;51.438;5.982;2024-02-21T00:55:42;31.05;28.16;42.29;;
67310;Laerm;65444;51.438;5.982;2024-02-21T00:55:53;30.84;28.59;41.10;;
67310;Laerm;65444;51.438;5.982;2024-02-21T00:56:06;41.63;28.94;60.27;;
67310;Laerm;65444;51.438;5.982;2024-02-21T00:56:16;33.62;28.83;47.07;;
67310;Laerm;65444;51.438;5.982;2024-02-21T00:56:30;31.29;28.66;38.28;;
67310;Laerm;65444;51.438;5.982;2024-02-21T00:56:43;32.59;28.83;41.54;;
67310;Laerm;65444;51.438;5.982;2024-02-21T00:56:54;39.83;30.78;52.35;;
67310;Laerm;65444;51.438;5.982;2024-02-21T00:57:04;40.50;31.24;59.63;;
67310;Laerm;65444;51.438;5.982;2024-02-21T00:57:15;32.05;29.99;36.39;;
67310;Laerm;65444;51.438;5.982;2024-02-21T00:57:26;34.04;29.49;45.61;;
67310;Laerm;65444;51.438;5.982;2024-02-21T00:57:36;32.29;29.99;41.02;;
67310;Laerm;65444;51.438;5.982;2024-02-21T00:57:47;33.90;29.91;46.61;;
67310;Laerm;65444;51.438;5.982;2024-02-21T00:57:57;30.65;28.96;35.73;;
67310;Laerm;65444;51.438;5.982;2024-02-21T00:58:08;30.78;28.41;39.93;;
67310;Laerm;65444;51.438;5.982;2024-02-21T00:58:18;30.91;28.70;38.11;;
67310;Laerm;65444;51.438;5.982;2024-02-21T00:58:29;30.79;28.36;40.83;;
67310;Laerm;65444;51.438;5.982;2024-02-21T00:58:40;31.67;28.25;46.11;;
67310;Laerm;65444;51.438;5.982;2024-02-21T00:58:50;30.04;28.33;38.96;;
67310;Laerm;65444;51.438;5.982;2024-02-21T00:59:01;29.51;28.27;30.60;;
67310;Laerm;65444;51.438;5.982;2024-02-21T00:59:11;30.07;28.80;36.89;;
67310;Laerm;65444;51.438;5.982;2024-02-21T00:59:21;29.86;28.24;32.28;;
67310;Laerm;65444;51.438;5.982;2024-02-21T00:59:32;30.43;28.48;38.04;;
67310;Laerm;65444;51.438;5.982;2024-02-21T00:59:43;30.65;28.88;39.13;;
67310;Laerm;65444;51.438;5.982;2024-02-21T00:59:53;29.85;28.40;32.97;;
67310;Laerm;65444;51.438;5.982;2024-02-21T01:00:04;29.74;28.56;30.80;;
67310;Laerm;65444;51.438;5.982;2024-02-21T01:00:15;36.88;28.98;46.37;;
67310;Laerm;65444;51.438;5.982;2024-02-21T01:00:26;30.65;29.07;32.93;;
67310;Laerm;65444;51.438;5.982;2024-02-21T01:00:36;31.66;29.66;35.96;;
67310;Laerm;65444;51.438;5.982;2024-02-21T01:00:47;34.30;29.50;47.90;;
67310;Laerm;65444;51.438;5.982;2024-02-21T01:01:00;32.35;30.14;38.49;;
67310;Laerm;65444;51.438;5.982;2024-02-21T01:01:10;30.89;28.62;40.96;;
67310;Laerm;65444;51.438;5.982;2024-02-21T01:01:21;30.80;28.78;39.60;;
67310;Laerm;65444;51.438;5.982;2024-02-21T01:01:32;31.85;29.30;41.23;;
67310;Laerm;65444;51.438;5.982;2024-02-21T01:01:43;31.50;29.81;34.94;;
67310;Laerm;65444;51.438;5.982;2024-02-21T01:01:53;31.41;29.41;38.28;;
67310;Laerm;65444;51.438;5.982;2024-02-21T01:02:03;30.95;29.10;41.71;;
67310;Laerm;65444;51.438;5.982;2024-02-21T01:02:14;30.64;29.01;37.60;;
67310;Laerm;65444;51.438;5.982;2024-02-21T01:02:24;31.60;29.12;42.93;;
67310;Laerm;65444;51.438;5.982;2024-02-21T01:02:34;30.10;28.68;33.09;;
67310;Laerm;65444;51.438;5.982;2024-02-21T01:02:46;29.65;28.33;30.91;;
67310;Laerm;65444;51.438;5.982;2024-02-21T01:03:01;31.30;28.88;42.85;;
67310;Laerm;65444;51.438;5.982;2024-02-21T01:03:11;32.37;29.97;39.04;;
67310;Laerm;65444;51.438;5.982;2024-02-21T01:03:22;34.46;30.04;46.40;;
67310;Laerm;65444;51.438;5.982;2024-02-21T01:03:32;36.64;30.64;46.41;;
67310;Laerm;65444;51.438;5.982;2024-02-21T01:03:43;34.47;30.15;44.61;;
67310;Laerm;65444;51.438;5.982;2024-02-21T01:03:53;44.07;35.55;50.80;;
67310;Laerm;65444;51.438;5.982;2024-02-21T01:04:04;51.99;47.05;57.73;;
67310;Laerm;65444;51.438;5.982;2024-02-21T01:04:14;53.07;47.62;60.59;;
67310;Laerm;65444;51.438;5.982;2024-02-21T01:04:25;48.10;45.32;50.37;;
67310;Laerm;65444;51.438;5.982;2024-02-21T01:04:35;50.16;47.71;54.52;;
67310;Laerm;65444;51.438;5.982;2024-02-21T01:04:45;48.56;42.71;52.19;;
67310;Laerm;65444;51.438;5.982;2024-02-21T01:04:56;42.97;39.12;45.95;;
67310;Laerm;65444;51.438;5.982;2024-02-21T01:05:06;39.05;35.87;42.75;;
67310;Laerm;65444;51.438;5.982;2024-02-21T01:05:16;35.93;34.35;37.59;;
67310;Laerm;65444;51.438;5.982;2024-02-21T01:05:27;35.72;33.21;37.65;;
67310;Laerm;65444;51.438;5.982;2024-02-21T01:05:39;38.05;35.19;46.35;;
67310;Laerm;65444;51.438;5.982;2024-02-21T01:05:49;38.60;34.77;47.84;;
67310;Laerm;65444;51.438;5.982;2024-02-21T01:06:02;34.70;31.45;44.76;;
67310;Laerm;65444;51.438;5.982;2024-02-21T01:06:12;36.83;31.16;47.99;;
67310;Laerm;65444;51.438;5.982;2024-02-21T01:06:23;39.13;34.58;46.35;;
67310;Laerm;65444;51.438;5.982;2024-02-21T01:06:33;36.01;32.76;41.98;;
67310;Laerm;65444;51.438;5.982;2024-02-21T01:06:44;34.69;32.12;38.39;;
67310;Laerm;65444;51.438;5.982;2024-02-21T01:06:54;36.43;32.57;46.42;;
67310;Laerm;65444;51.438;5.982;2024-02-21T01:07:04;35.45;32.42;44.40;;
67310;Laerm;65444;51.438;5.982;2024-02-21T01:07:15;34.49;30.84;45.76;;
67310;Laerm;65444;51.438;5.982;2024-02-21T01:07:25;32.96;30.40;35.51;;
67310;Laerm;65444;51.438;5.982;2024-02-21T01:07:35;34.60;31.39;46.00;;
67310;Laerm;65444;51.438;5.982;2024-02-21T01:07:46;33.62;31.57;39.35;;
67310;Laerm;65444;51.438;5.982;2024-02-21T01:07:56;32.19;30.33;34.11;;
67310;Laerm;65444;51.438;5.982;2024-02-21T01:08:07;32.84;30.99;36.11;;
67310;Laerm;65444;51.438;5.982;2024-02-21T01:08:17;45.26;31.02;59.91;;
67310;Laerm;65444;51.438;5.982;2024-02-21T01:08:28;38.03;32.61;49.70;;
67310;Laerm;65444;51.438;5.982;2024-02-21T01:08:38;41.41;32.53;55.81;;
67310;Laerm;65444;51.438;5.982;2024-02-21T01:08:49;33.39;29.98;42.93;;
67310;Laerm;65444;51.438;5.982;2024-02-21T01:08:59;32.45;30.44;37.88;;
67310;Laerm;65444;51.438;5.982;2024-02-21T01:09:13;32.90;31.08;34.95;;
67310;Laerm;65444;51.438;5.982;2024-02-21T01:09:23;34.68;31.16;49.30;;
67310;Laerm;65444;51.438;5.982;2024-02-21T01:09:34;34.70;31.41;41.82;;
67310;Laerm;65444;51.438;5.982;2024-02-21T01:09:44;34.05;31.88;36.22;;
67310;Laerm;65444;51.438;5.982;2024-02-21T01:09:54;34.03;31.61;41.58;;
67310;Laerm;65444;51.438;5.982;2024-02-21T01:10:05;33.32;31.23;39.14;;
67310;Laerm;65444;51.438;5.982;2024-02-21T01:10:16;35.44;31.20;46.14;;
67310;Laerm;65444;51.438;5.982;2024-02-21T01:10:27;33.90;31.89;36.40;;
67310;Laerm;65444;51.438;5.982;2024-02-21T01:10:37;36.80;32.76;40.06;;
67310;Laerm;65444;51.438;5.982;2024-02-21T01:10:48;36.95;34.14;47.03;;
67310;Laerm;65444;51.438;5.982;2024-02-21T01:10:58;35.89;33.62;39.49;;
67310;Laerm;65444;51.438;5.982;2024-02-21T01:11:08;37.75;34.21;40.18;;
67310;Laerm;65444;51.438;5.982;2024-02-21T01:11:19;38.73;35.90;44.65;;
67310;Laerm;65444;51.438;5.982;2024-02-21T01:11:29;39.01;36.22;43.32;;
67310;Laerm;65444;51.438;5.982;2024-02-21T01:11:39;42.48;38.95;46.72;;
67310;Laerm;65444;51.438;5.982;2024-02-21T01:11:50;48.71;43.34;54.72;;
67310;Laerm;65444;51.438;5.982;2024-02-21T01:12:00;55.44;50.43;58.80;;
67310;Laerm;65444;51.438;5.982;2024-02-21T01:12:11;57.36;54.04;67.63;;
67310;Laerm;65444;51.438;5.982;2024-02-21T01:12:22;56.37;52.59;60.12;;
67310;Laerm;65444;51.438;5.982;2024-02-21T01:12:36;57.34;52.97;61.70;;
67310;Laerm;65444;51.438;5.982;2024-02-21T01:12:46;49.75;41.15;60.23;;
67310;Laerm;65444;51.438;5.982;2024-02-21T01:12:57;40.09;34.70;47.17;;
67310;Laerm;65444;51.438;5.982;2024-02-21T01:13:07;35.54;33.08;38.87;;
67310;Laerm;65444;51.438;5.982;2024-02-21T01:13:17;33.04;29.87;38.38;;
67310;Laerm;65444;51.438;5.982;2024-02-21T01:13:28;31.83;29.20;39.92;;
67310;Laerm;65444;51.438;5.982;2024-02-21T01:13:38;36.82;30.56;56.64;;
67310;Laerm;65444;51.438;5.982;2024-02-21T01:13:49;36.16;30.18;50.97;;
67310;Laerm;65444;51.438;5.982;2024-02-21T01:13:59;31.12;28.88;38.03;;
67310;Laerm;65444;51.438;5.982;2024-02-21T01:14:09;31.82;28.91;41.73;;
67310;Laerm;65444;51.438;5.982;2024-02-21T01:14:21;33.00;28.76;43.64;;
67310;Laerm;65444;51.438;5.982;2024-02-21T01:14:31;33.79;29.54;47.43;;
67310;Laerm;65444;51.438;5.982;2024-02-21T01:14:41;40.49;32.36;52.85;;
67310;Laerm;65444;51.438;5.982;2024-02-21T01:14:52;38.43;31.61;52.81;;
67310;Laerm;65444;51.438;5.982;2024-02-21T01:15:02;42.36;30.95;55.38;;
67310;Laerm;65444;51.438;5.982;2024-02-21T01:15:13;33.90;30.83;40.30;;
67310;Laerm;65444;51.438;5.982;2024-02-21T01:15:23;38.32;32.25;50.25;;
67310;Laerm;65444;51.438;5.982;2024-02-21T01:15:34;32.58;30.53;39.20;;
67310;Laerm;65444;51.438;5.982;2024-02-21T01:15:44;34.23;30.37;42.91;;